This is the latest recevied weather packets stored in our database for station/object OK2ILA-13. If no packets are shown the sender has not sent any weather packets the latest 10 day(s).
| Time | Temp. | Humidity | Pressure | Rain* | Wind** | Luminosity | Snow |
|---|---|---|---|---|---|---|---|
| 1777763052 | 11.11° C | 41% | 1019.9 hPa | - | - | - | - |
| 1777760654 | 10.56° C | 43% | 1020 hPa | - | - | - | - |
| 1777760054 | 10.56° C | 44% | 1020.1 hPa | - | - | - | - |
| 1777759455 | 11.11° C | 45% | 1020.1 hPa | - | - | - | - |
| 1777758855 | 11.11° C | 45% | 1020.2 hPa | - | - | - | - |
| 1777758256 | 11.11° C | 44% | 1020.2 hPa | - | - | - | - |
| 1777757656 | 11.11° C | 44% | 1020.2 hPa | - | - | - | - |
| 1777757057 | 11.11° C | 44% | 1020.4 hPa | - | - | - | - |
| 1777756457 | 11.67° C | 43% | 1020.4 hPa | - | - | - | - |
| 1777755858 | 11.67° C | 43% | 1020.6 hPa | - | - | - | - |
| 1777755259 | 11.67° C | 43% | 1020.7 hPa | - | - | - | - |
| 1777754060 | 12.22° C | 42% | 1020.7 hPa | - | - | - | - |
| 1777753460 | 12.22° C | 42% | 1020.7 hPa | - | - | - | - |
| 1777752261 | 12.78° C | 41% | 1020.9 hPa | - | - | - | - |
| 1777751661 | 12.78° C | 39% | 1021 hPa | - | - | - | - |
| 1777750462 | 13.89° C | 37% | 1020.9 hPa | - | - | - | - |
| 1777749863 | 13.89° C | 36% | 1020.9 hPa | - | - | - | - |
| 1777749263 | 14.44° C | 34% | 1021 hPa | - | - | - | - |
| 1777748663 | 14.44° C | 33% | 1021 hPa | - | - | - | - |
| 1777748063 | 14.44° C | 33% | 1020.9 hPa | - | - | - | - |
| 1777747443 | 15° C | 31% | 1020.9 hPa | - | - | - | - |
| 1777746843 | 15° C | 30% | 1020.8 hPa | - | - | - | - |
| 1777745643 | 15° C | 30% | 1020.9 hPa | - | - | - | - |
| 1777742643 | 16.67° C | 26% | 1020.9 hPa | - | - | - | - |
| 1777737245 | 18.33° C | 23% | 1021.6 hPa | - | - | - | - |
* Rain since midnight (hover to see other rain measurements)
** Current wind speed in m/s (hover to see current wind gust speed)